Presque Isle, ME

7:47 PM EDT on October 30, 2014 (GMT -0400)
Micmac Environmental | Change Station
CLOSE
Current Station
Personal Weather Station
Location: Presque Isle, ME
Elevation: 540 ft
Nearby Weather Stations

Elev 540 ft 46.70 °N, 68.03 °W | Updated 2 seconds ago

Overcast
Overcast
42.7 °F
Feels Like 43 °F
N
0.0
Wind Variable Wind from North
Gusts 0.0 mph

Today
High -- | Low -- °F
--% Chance of Precip.
Yesterday
High -- | Low -- °F
Precip. -- in
7:11 AM 5:19 PM
Waxing Crescent, 49% visible
Pressure 29.90 in
Visibility 10.0 miles
Clouds Overcast 6000 ft
Windchill 43 °F
Dew Point 33 °F
Humidity 68%
Rainfall 0.00 in
Snow Depth Not available.
UV 1.0 out of 12
Pollen .30 out of 12
Air Quality Not available.
Flu Activity Not available.
METAR KPQI 302335Z AUTO 00000KT 10SM OVC060 06/M01 A2990 RMK AO1

More Conditions Fewer Conditions

Pressure 29.90 in
Visibility 10.0 miles
Clouds Overcast 6000 ft
Windchill 43 °F
Dew Point 33 °F
Humidity 68%
Rainfall 0.00 in
Snow Depth Not available.
UV 1.0 out of 12
Pollen .30 out of 12
Air Quality Not available.
Flu Activity Not available.
METAR KPQI 302335Z AUTO 00000KT 10SM OVC060 06/M01 A2990 RMK AO1

More Conditions Fewer Conditions

10-Day Weather Forecast

Almanac

Astronomy

Oct. 30, 2014 Rise Set
Actual Time
Civil Twilight
Nautical Twilight
Astronomical Twilight
Moon
Length of Visible Light
Length of Day
Tomorrow will be .
, % of the Moon is Illuminated

Today's Extremes

State Highs State Lows

Community

WunderPhotos

Upload Photos

1,766,496 photos uploaded!

WunderBlogs® & News

Nearby

Air Quality

  Air Quality AQ Index Pollutant
Not available.

Snow Depth

Station Depth Elevation

Earthquake Activity

City Distance Mag. Time & Date
Minimum magnitude displayed is 2.5.

Coastal Water Temperatures

Place Temperature

Nearby Weather Stations